sensor_id;sensor_type;location;lat;lon;timestamp;temperature;humidity
30049;DHT22;16879;50.852;15.602;2023-05-08T04:08:24;2.10;99.90
30049;DHT22;16879;50.852;15.602;2023-05-08T04:18:37;1.70;99.90
30049;DHT22;16879;50.852;15.602;2023-05-08T04:21:09;2.20;1.00
30049;DHT22;16879;50.852;15.602;2023-05-08T04:26:04;2.20;36.90
30049;DHT22;16879;50.852;15.602;2023-05-08T04:28:32;2.20;99.90
30049;DHT22;16879;50.852;15.602;2023-05-08T04:33:27;3.40;1.00
30049;DHT22;16879;50.852;15.602;2023-05-08T04:43:12;2.80;99.90
30049;DHT22;16879;50.852;15.602;2023-05-08T04:50:30;2.90;1.00
30049;DHT22;16879;50.852;15.602;2023-05-08T04:55:22;3.40;99.90
30049;DHT22;16879;50.852;15.602;2023-05-08T05:00:14;3.30;99.90
30049;DHT22;16879;50.852;15.602;2023-05-08T05:02:40;3.90;99.90
30049;DHT22;16879;50.852;15.602;2023-05-08T05:05:07;3.50;99.90
30049;DHT22;16879;50.852;15.602;2023-05-08T05:07:32;3.30;99.90
30049;DHT22;16879;50.852;15.602;2023-05-08T05:09:59;4.20;99.90
30049;DHT22;16879;50.852;15.602;2023-05-08T05:12:25;3.80;99.90
30049;DHT22;16879;50.852;15.602;2023-05-08T05:27:04;4.10;1.00
30049;DHT22;16879;50.852;15.602;2023-05-08T05:31:57;4.70;99.90
30049;DHT22;16879;50.852;15.602;2023-05-08T05:41:41;4.70;66.40
30049;DHT22;16879;50.852;15.602;2023-05-08T05:51:34;5.00;1.00
30049;DHT22;16879;50.852;15.602;2023-05-08T06:03:45;5.40;7.30
30049;DHT22;16879;50.852;15.602;2023-05-08T06:13:39;5.60;1.00
30049;DHT22;16879;50.852;15.602;2023-05-08T07:26:57;9.20;1.00
30049;DHT22;16879;50.852;15.602;2023-05-08T07:44:03;10.00;1.00
30049;DHT22;16879;50.852;15.602;2023-05-08T08:01:10;10.30;1.00
30049;DHT22;16879;50.852;15.602;2023-05-08T08:10:55;11.10;1.00
30049;DHT22;16879;50.852;15.602;2023-05-08T08:18:13;10.50;1.00
30049;DHT22;16879;50.852;15.602;2023-05-08T08:30:23;12.00;1.00
30049;DHT22;16879;50.852;15.602;2023-05-08T08:32:49;12.40;1.00
30049;DHT22;16879;50.852;15.602;2023-05-08T08:35:15;11.80;1.00
30049;DHT22;16879;50.852;15.602;2023-05-08T08:45:00;11.70;1.00
30049;DHT22;16879;50.852;15.602;2023-05-08T08:50:03;12.10;99.90
30049;DHT22;16879;50.852;15.602;2023-05-08T09:02:21;12.50;99.90
30049;DHT22;16879;50.852;15.602;2023-05-08T09:04:50;12.60;99.90
30049;DHT22;16879;50.852;15.602;2023-05-08T09:07:17;12.70;99.90
30049;DHT22;16879;50.852;15.602;2023-05-08T09:19:29;12.50;99.90
30049;DHT22;16879;50.852;15.602;2023-05-08T09:21:58;12.90;99.90
30049;DHT22;16879;50.852;15.602;2023-05-08T09:24:25;13.00;1.00
30049;DHT22;16879;50.852;15.602;2023-05-08T09:49:54;13.80;1.00
30049;DHT22;16879;50.852;15.602;2023-05-08T09:52:21;13.80;1.00
30049;DHT22;16879;50.852;15.602;2023-05-08T10:10:05;14.20;99.90
30049;DHT22;16879;50.852;15.602;2023-05-08T10:20:19;14.40;99.90
30049;DHT22;16879;50.852;15.602;2023-05-08T10:22:47;14.50;99.90
30049;DHT22;16879;50.852;15.602;2023-05-08T10:25:16;14.50;99.90
30049;DHT22;16879;50.852;15.602;2023-05-08T10:32:43;15.00;99.90
30049;DHT22;16879;50.852;15.602;2023-05-08T10:37:37;15.10;99.90
30049;DHT22;16879;50.852;15.602;2023-05-08T10:40:05;14.70;99.90
30049;DHT22;16879;50.852;15.602;2023-05-08T10:42:33;14.70;99.90
30049;DHT22;16879;50.852;15.602;2023-05-08T10:45:01;14.70;99.90
30049;DHT22;16879;50.852;15.602;2023-05-08T10:53:16;14.90;99.90
30049;DHT22;16879;50.852;15.602;2023-05-08T10:55:49;15.00;99.90
30049;DHT22;16879;50.852;15.602;2023-05-08T10:58:33;15.10;99.90
30049;DHT22;16879;50.852;15.602;2023-05-08T11:05:53;15.20;99.90
30049;DHT22;16879;50.852;15.602;2023-05-08T11:15:56;15.40;1.00
30049;DHT22;16879;50.852;15.602;2023-05-08T11:21:03;15.50;99.90
30049;DHT22;16879;50.852;15.602;2023-05-08T11:23:31;15.60;99.90
30049;DHT22;16879;50.852;15.602;2023-05-08T11:28:31;15.60;99.90
30049;DHT22;16879;50.852;15.602;2023-05-08T11:31:06;15.70;99.90
30049;DHT22;16879;50.852;15.602;2023-05-08T11:33:36;15.70;99.90
30049;DHT22;16879;50.852;15.602;2023-05-08T11:36:15;15.80;99.90
30049;DHT22;16879;50.852;15.602;2023-05-08T11:41:22;15.90;99.90
30049;DHT22;16879;50.852;15.602;2023-05-08T11:43:53;16.50;1.00
30049;DHT22;16879;50.852;15.602;2023-05-08T11:46:22;16.30;1.00
30049;DHT22;16879;50.852;15.602;2023-05-08T11:51:16;16.00;99.90
30049;DHT22;16879;50.852;15.602;2023-05-08T11:53:44;16.10;99.90
30049;DHT22;16879;50.852;15.602;2023-05-08T11:56:11;15.70;1.00
30049;DHT22;16879;50.852;15.602;2023-05-08T11:58:37;16.20;1.00
30049;DHT22;16879;50.852;15.602;2023-05-08T12:01:03;16.30;1.00
30049;DHT22;16879;50.852;15.602;2023-05-08T12:05:57;16.30;1.00
30049;DHT22;16879;50.852;15.602;2023-05-08T12:08:23;16.30;99.90
30049;DHT22;16879;50.852;15.602;2023-05-08T12:10:54;16.30;99.90
30049;DHT22;16879;50.852;15.602;2023-05-08T12:15:50;17.10;1.00
30049;DHT22;16879;50.852;15.602;2023-05-08T12:18:18;16.30;1.00
30049;DHT22;16879;50.852;15.602;2023-05-08T12:20:44;16.90;1.00
30049;DHT22;16879;50.852;15.602;2023-05-08T12:23:10;16.90;1.00
30049;DHT22;16879;50.852;15.602;2023-05-08T12:28:08;16.60;1.00
30049;DHT22;16879;50.852;15.602;2023-05-08T12:30:38;16.70;99.90
30049;DHT22;16879;50.852;15.602;2023-05-08T12:40:46;16.80;1.00
30049;DHT22;16879;50.852;15.602;2023-05-08T12:43:17;16.90;1.00
30049;DHT22;16879;50.852;15.602;2023-05-08T12:45:43;17.20;1.00
30049;DHT22;16879;50.852;15.602;2023-05-08T12:48:11;17.30;99.90
30049;DHT22;16879;50.852;15.602;2023-05-08T12:50:45;17.10;99.90
30049;DHT22;16879;50.852;15.602;2023-05-08T12:53:13;17.20;99.90
30049;DHT22;16879;50.852;15.602;2023-05-08T12:55:48;16.80;1.00
30049;DHT22;16879;50.852;15.602;2023-05-08T12:58:17;17.30;1.00
30049;DHT22;16879;50.852;15.602;2023-05-08T13:00:48;17.00;1.00
30049;DHT22;16879;50.852;15.602;2023-05-08T13:05:48;17.40;99.90
30049;DHT22;16879;50.852;15.602;2023-05-08T13:08:14;17.60;99.90
30049;DHT22;16879;50.852;15.602;2023-05-08T13:13:16;17.40;99.90
30049;DHT22;16879;50.852;15.602;2023-05-08T13:15:42;18.00;99.90
30049;DHT22;16879;50.852;15.602;2023-05-08T13:20:35;17.60;99.90
30049;DHT22;16879;50.852;15.602;2023-05-08T13:37:49;18.30;99.90
30049;DHT22;16879;50.852;15.602;2023-05-08T13:42:42;18.30;99.90
30049;DHT22;16879;50.852;15.602;2023-05-08T13:47:35;18.90;99.90
30049;DHT22;16879;50.852;15.602;2023-05-08T13:57:21;18.70;99.90
30049;DHT22;16879;50.852;15.602;2023-05-08T13:59:47;19.10;99.90
30049;DHT22;16879;50.852;15.602;2023-05-08T14:02:12;18.70;99.90
30049;DHT22;16879;50.852;15.602;2023-05-08T14:04:39;18.90;99.90
30049;DHT22;16879;50.852;15.602;2023-05-08T14:07:05;19.00;99.90
30049;DHT22;16879;50.852;15.602;2023-05-08T14:09:31;19.40;99.90
30049;DHT22;16879;50.852;15.602;2023-05-08T14:14:23;19.10;99.90
30049;DHT22;16879;50.852;15.602;2023-05-08T14:19:16;19.60;99.90
30049;DHT22;16879;50.852;15.602;2023-05-08T14:21:45;19.40;99.90
30049;DHT22;16879;50.852;15.602;2023-05-08T14:26:37;19.20;99.90
30049;DHT22;16879;50.852;15.602;2023-05-08T14:29:03;19.60;99.90
30049;DHT22;16879;50.852;15.602;2023-05-08T14:38:48;19.80;99.90
30049;DHT22;16879;50.852;15.602;2023-05-08T14:43:40;20.10;99.90
30049;DHT22;16879;50.852;15.602;2023-05-08T15:47:36;21.40;99.90
30049;DHT22;16879;50.852;15.602;2023-05-08T15:52:28;21.00;99.90
30049;DHT22;16879;50.852;15.602;2023-05-08T15:59:46;20.80;99.90
30049;DHT22;16879;50.852;15.602;2023-05-08T16:02:11;20.50;99.90
30049;DHT22;16879;50.852;15.602;2023-05-08T16:04:37;20.70;99.90
30049;DHT22;16879;50.852;15.602;2023-05-08T16:07:03;21.50;99.90
30049;DHT22;16879;50.852;15.602;2023-05-08T16:09:29;19.90;99.90
30049;DHT22;16879;50.852;15.602;2023-05-08T16:14:21;20.00;99.90
30049;DHT22;16879;50.852;15.602;2023-05-08T16:26:32;20.00;99.90
30049;DHT22;16879;50.852;15.602;2023-05-08T16:33:50;19.70;99.90
30049;DHT22;16879;50.852;15.602;2023-05-08T16:38:42;19.40;99.90
30049;DHT22;16879;50.852;15.602;2023-05-08T16:41:08;19.90;99.90
30049;DHT22;16879;50.852;15.602;2023-05-08T16:46:00;19.20;99.90
30049;DHT22;16879;50.852;15.602;2023-05-08T17:00:38;19.50;99.90
30049;DHT22;16879;50.852;15.602;2023-05-08T17:03:04;19.40;99.90
30049;DHT22;16879;50.852;15.602;2023-05-08T17:07:56;19.00;99.90
30049;DHT22;16879;50.852;15.602;2023-05-08T17:12:48;19.40;99.90
30049;DHT22;16879;50.852;15.602;2023-05-08T17:29:54;18.10;99.90
30049;DHT22;16879;50.852;15.602;2023-05-08T19:11:20;11.20;99.90
30049;DHT22;16879;50.852;15.602;2023-05-08T23:00:02;5.40;99.90
30049;DHT22;16879;50.852;15.602;2023-05-08T23:02:32;4.60;99.90
30049;DHT22;16879;50.852;15.602;2023-05-08T23:09:51;4.30;1.00
30049;DHT22;16879;50.852;15.602;2023-05-08T23:12:17;4.90;1.00
30049;DHT22;16879;50.852;15.602;2023-05-08T23:14:42;5.00;99.90
30049;DHT22;16879;50.852;15.602;2023-05-08T23:41:37;3.90;1.00
30049;DHT22;16879;50.852;15.602;2023-05-08T23:44:03;4.20;1.00
30049;DHT22;16879;50.852;15.602;2023-05-08T23:46:29;3.80;1.00
30049;DHT22;16879;50.852;15.602;2023-05-08T23:58:41;4.10;1.00
